createdAt,value
2023-03-25T00:02:17.793Z,79.75
2023-03-25T00:07:26.041Z,80.41
2023-03-25T00:12:33.765Z,80.55
2023-03-25T00:17:43.171Z,81.37
2023-03-25T00:22:50.568Z,82.03
2023-03-25T00:27:58.039Z,82.19
2023-03-25T00:33:05.743Z,82.77
2023-03-25T00:38:13.187Z,82.64
2023-03-25T00:43:20.608Z,83.04
2023-03-25T00:48:29.230Z,83.39
2023-03-25T00:53:37.654Z,83.28
2023-03-25T00:58:45.062Z,83.34
2023-03-25T01:03:58.139Z,83.32
2023-03-25T01:09:08.505Z,83.32
2023-03-25T01:14:17.418Z,83.34
2023-03-25T01:19:26.174Z,83.01
2023-03-25T01:24:35.048Z,83.09
2023-03-25T01:29:44.347Z,82.56
2023-03-25T01:34:51.880Z,82.64
2023-03-25T01:39:59.563Z,82.13
2023-03-25T01:45:27.788Z,81.89
2023-03-25T01:50:37.946Z,81.67
2023-03-25T01:55:46.555Z,81.34
2023-03-25T02:01:00.004Z,80.98
2023-03-25T02:06:11.448Z,80.78
2023-03-25T02:11:19.022Z,80.89
2023-03-25T02:16:34.134Z,80.78
2023-03-25T02:22:21.017Z,80.57
2023-03-25T02:27:48.248Z,80.68
2023-03-25T02:33:27.450Z,80.99
2023-03-25T02:38:41.974Z,80.78
2023-03-25T02:43:59.147Z,80.82
2023-03-25T02:49:11.004Z,81.43
2023-03-25T02:54:21.610Z,81.71
2023-03-25T02:59:33.420Z,82.06
2023-03-25T03:04:53.528Z,82.24
2023-03-25T03:10:13.778Z,82.48
2023-03-25T03:15:29.518Z,82.18
2023-03-25T03:20:42.326Z,82.25
2023-03-25T03:25:53.926Z,82.47
2023-03-25T03:31:07.141Z,82.46
2023-03-25T03:36:19.069Z,82.47
2023-03-25T03:41:30.040Z,82.20
2023-03-25T03:46:42.369Z,81.94
2023-03-25T03:51:54.590Z,81.94
2023-03-25T03:57:08.037Z,79.83
2023-03-25T04:02:27.542Z,77.59
2023-03-25T04:07:41.968Z,76.97
2023-03-25T04:12:53.006Z,77.41
2023-03-25T04:18:01.941Z,76.75
2023-03-25T04:23:10.871Z,75.48
2023-03-25T04:28:19.063Z,74.42
2023-03-25T04:33:26.928Z,73.58
2023-03-25T04:38:34.401Z,72.27
2023-03-25T04:43:42.007Z,72.92
2023-03-25T04:48:50.016Z,72.75
2023-03-25T04:53:57.550Z,72.98
2023-03-25T04:59:05.030Z,73.50
2023-03-25T05:04:14.555Z,74.23
2023-03-25T05:09:24.553Z,74.94
2023-03-25T05:14:32.270Z,75.39
2023-03-25T05:19:44.103Z,75.51
2023-03-25T05:24:53.709Z,75.99
2023-03-25T05:30:01.332Z,76.67
2023-03-25T05:35:10.790Z,76.66
2023-03-25T05:40:18.432Z,77.63
2023-03-25T05:45:26.240Z,77.71
2023-03-25T05:50:34.021Z,78.21
2023-03-25T05:55:42.421Z,78.16
2023-03-25T06:00:50.701Z,78.38
2023-03-25T06:05:59.716Z,78.45
2023-03-25T06:11:09.494Z,78.84
2023-03-25T06:16:18.727Z,79.28
2023-03-25T06:21:27.166Z,79.59
2023-03-25T06:26:34.598Z,79.82
2023-03-25T06:31:43.160Z,79.70
2023-03-25T06:36:50.510Z,80.13
2023-03-25T06:41:58.110Z,79.81
2023-03-25T06:47:06.868Z,80.03
2023-03-25T06:52:14.472Z,79.23
2023-03-25T06:57:21.964Z,79.37
2023-03-25T07:02:29.516Z,79.56
2023-03-25T07:07:36.893Z,79.42
2023-03-25T07:12:44.230Z,79.39
2023-03-25T07:17:51.476Z,79.05
2023-03-25T07:22:59.107Z,79.14
2023-03-25T07:28:07.162Z,79.47
2023-03-25T07:33:14.822Z,78.76
2023-03-25T07:38:22.845Z,78.23
2023-03-25T07:43:30.690Z,78.28
2023-03-25T07:48:38.334Z,78.03
2023-03-25T07:53:46.738Z,77.49
2023-03-25T07:58:54.446Z,77.11
2023-03-25T08:04:02.002Z,76.69
2023-03-25T08:09:09.969Z,77.24
2023-03-25T08:14:18.046Z,76.56
2023-03-25T08:19:28.714Z,76.56
2023-03-25T08:24:35.953Z,77.16
2023-03-25T08:29:43.755Z,77.25
2023-03-25T08:34:51.735Z,76.68
2023-03-25T08:39:59.173Z,75.79
2023-03-25T08:45:08.422Z,75.01
2023-03-25T08:50:16.245Z,74.04
2023-03-25T08:55:24.784Z,73.36
2023-03-25T09:00:33.348Z,72.94
2023-03-25T09:05:42.376Z,72.10
2023-03-25T09:10:49.974Z,69.51
2023-03-25T09:15:59.248Z,67.96
2023-03-25T09:21:08.087Z,67.45
2023-03-25T09:26:15.607Z,65.47
2023-03-25T09:31:23.316Z,63.01
2023-03-25T09:36:32.421Z,61.16
2023-03-25T09:41:59.276Z,60.56
2023-03-25T09:47:10.968Z,61.32
2023-03-25T09:52:27.949Z,59.84
2023-03-25T09:57:42.512Z,59.10
2023-03-25T10:02:56.311Z,60.13
2023-03-25T10:08:15.061Z,59.72
2023-03-25T10:13:29.060Z,58.36
2023-03-25T10:18:54.528Z,57.35
2023-03-25T10:24:14.505Z,57.80
2023-03-25T10:29:27.626Z,57.87
2023-03-25T10:34:40.928Z,57.17
2023-03-25T10:39:50.203Z,56.52
2023-03-25T10:44:59.559Z,57.16
2023-03-25T10:50:09.533Z,56.27
2023-03-25T10:55:26.650Z,54.10
2023-03-25T11:00:35.090Z,50.55
2023-03-25T11:05:42.607Z,51.66
2023-03-25T11:10:58.055Z,51.40
2023-03-25T11:16:08.536Z,49.66
2023-03-25T11:21:16.939Z,48.97
2023-03-25T11:26:27.171Z,50.43
2023-03-25T11:31:39.452Z,50.77
2023-03-25T11:36:55.410Z,50.55
2023-03-25T11:42:11.520Z,51.27
2023-03-25T11:47:22.815Z,51.83
2023-03-25T11:52:38.303Z,52.33
2023-03-25T11:57:46.513Z,51.74
2023-03-25T12:03:02.601Z,51.68
2023-03-25T12:08:17.482Z,54.41
2023-03-25T12:13:45.701Z,56.68
2023-03-25T12:19:07.308Z,59.29
2023-03-25T12:24:30.535Z,60.91
2023-03-25T12:29:48.868Z,65.52
2023-03-25T12:35:08.764Z,69.63
2023-03-25T12:40:38.255Z,71.56
2023-03-25T12:45:59.548Z,72.24
2023-03-25T12:51:15.135Z,72.78
2023-03-25T12:56:43.282Z,73.22
2023-03-25T13:01:59.862Z,72.40
2023-03-25T13:07:11.624Z,71.37
2023-03-25T13:12:32.553Z,71.34
2023-03-25T13:17:47.979Z,68.42
2023-03-25T13:23:02.522Z,60.93
2023-03-25T13:28:15.470Z,56.68
2023-03-25T13:34:06.893Z,54.50
2023-03-25T13:39:20.040Z,55.75
2023-03-25T13:44:33.788Z,55.31
2023-03-25T13:49:47.861Z,54.64
2023-03-25T13:55:01.889Z,55.34
2023-03-25T14:00:55.475Z,54.74
2023-03-25T14:06:47.746Z,55.86
2023-03-25T14:12:04.263Z,55.37
2023-03-25T14:17:14.544Z,54.98
2023-03-25T14:22:27.923Z,55.87
2023-03-25T14:27:38.159Z,56.10
2023-03-25T14:32:46.815Z,56.25
2023-03-25T14:37:54.885Z,56.94
2023-03-25T14:43:02.844Z,57.45
2023-03-25T14:48:27.943Z,57.75
2023-03-25T14:53:36.572Z,58.25
2023-03-25T14:58:46.302Z,58.69
2023-03-25T15:04:13.647Z,58.52
2023-03-25T15:09:23.563Z,57.72
2023-03-25T15:14:37.473Z,58.36
2023-03-25T15:20:28.245Z,59.22
2023-03-25T15:25:38.309Z,61.42
2023-03-25T15:31:14.721Z,61.45
2023-03-25T15:36:59.170Z,56.94
2023-03-25T15:42:22.847Z,54.37
2023-03-25T15:47:48.133Z,53.90
2023-03-25T15:53:15.058Z,53.90
2023-03-25T15:58:32.173Z,54.00
2023-03-25T16:03:39.468Z,52.46
2023-03-25T16:08:50.883Z,52.05
2023-03-25T16:14:15.143Z,52.88
2023-03-25T16:19:28.220Z,53.46
2023-03-25T16:24:35.889Z,54.53
2023-03-25T16:29:49.245Z,54.70
2023-03-25T16:34:57.959Z,54.86
2023-03-25T16:40:11.699Z,54.07
2023-03-25T16:45:20.787Z,54.35
2023-03-25T16:50:28.618Z,54.05
2023-03-25T16:55:49.225Z,54.49
2023-03-25T17:00:57.741Z,55.14
2023-03-25T17:06:10.352Z,55.87
2023-03-25T17:11:18.416Z,56.10
2023-03-25T17:16:28.437Z,57.22
2023-03-25T17:21:38.905Z,57.65
2023-03-25T17:27:05.632Z,58.39
2023-03-25T17:32:20.619Z,58.85
2023-03-25T17:37:29.508Z,59.57
2023-03-25T17:42:38.807Z,60.49
2023-03-25T17:47:46.795Z,61.09
2023-03-25T17:52:55.283Z,62.38
2023-03-25T17:58:02.631Z,62.57
2023-03-25T18:03:16.819Z,63.45
2023-03-25T18:08:26.468Z,64.05
2023-03-25T18:13:33.690Z,64.18
2023-03-25T18:18:41.585Z,64.69
2023-03-25T18:23:49.710Z,65.49
2023-03-25T18:28:59.252Z,65.86
2023-03-25T18:34:07.370Z,65.97
2023-03-25T18:39:19.696Z,66.13
2023-03-25T18:44:31.117Z,66.18
2023-03-25T18:49:39.528Z,66.96
2023-03-25T18:54:47.357Z,66.74
2023-03-25T18:59:54.805Z,66.70
2023-03-25T19:05:02.650Z,66.92
2023-03-25T19:10:14.379Z,68.04
2023-03-25T19:15:25.288Z,69.24
2023-03-25T19:20:36.468Z,69.76
2023-03-25T19:25:45.420Z,70.17
2023-03-25T19:30:55.148Z,70.07
2023-03-25T19:36:05.104Z,70.16
2023-03-25T19:41:14.036Z,70.66
2023-03-25T19:46:21.466Z,70.87
2023-03-25T19:51:29.145Z,71.04
2023-03-25T19:56:37.263Z,71.60
2023-03-25T20:01:46.142Z,71.75
2023-03-25T20:06:53.792Z,72.21
2023-03-25T20:12:01.794Z,72.28
2023-03-25T20:17:09.456Z,72.51
2023-03-25T20:22:25.019Z,72.63
2023-03-25T20:27:33.041Z,72.57
2023-03-25T20:32:42.652Z,72.78
2023-03-25T20:37:52.369Z,72.71
2023-03-25T20:43:00.284Z,72.49
2023-03-25T20:48:08.992Z,72.49
2023-03-25T20:53:17.271Z,72.80
2023-03-25T20:58:25.285Z,72.81
2023-03-25T21:03:33.586Z,72.84
2023-03-25T21:08:41.368Z,73.07
2023-03-25T21:13:49.366Z,72.98
2023-03-25T21:19:01.939Z,72.89
2023-03-25T21:24:11.563Z,73.55
2023-03-25T21:29:19.580Z,73.40
2023-03-25T21:34:27.022Z,73.87
2023-03-25T21:39:35.933Z,73.71
2023-03-25T21:44:43.508Z,72.43
2023-03-25T21:49:51.548Z,70.79
2023-03-25T21:54:59.610Z,69.13
2023-03-25T22:00:10.576Z,68.38
2023-03-25T22:05:19.553Z,67.43
2023-03-25T22:10:27.580Z,66.71
2023-03-25T22:15:36.520Z,66.11
2023-03-25T22:20:44.580Z,65.88
2023-03-25T22:25:53.142Z,65.16
2023-03-25T22:31:02.380Z,65.33
2023-03-25T22:36:13.132Z,65.11
2023-03-25T22:41:21.652Z,65.40
2023-03-25T22:46:29.361Z,65.25
2023-03-25T22:51:37.289Z,64.67
2023-03-25T22:56:45.920Z,63.73
2023-03-25T23:01:53.679Z,63.33
2023-03-25T23:07:08.349Z,62.74
2023-03-25T23:12:21.805Z,63.17
2023-03-25T23:17:30.225Z,63.22
2023-03-25T23:22:38.023Z,64.07
2023-03-25T23:27:46.532Z,65.21
2023-03-25T23:32:54.498Z,65.65
2023-03-25T23:38:02.185Z,66.11
2023-03-25T23:43:10.317Z,66.84
2023-03-25T23:48:17.968Z,67.49
2023-03-25T23:53:25.804Z,67.97
2023-03-25T23:58:34.431Z,68.26
